Аэропорт: им. Гейдара Алиева. Баку

ICAO: UBBB

METAR:
2019/01/21 23:00
UBBB 212300Z 19019KT 9999 BKN005 05/03 Q1016 R88/CLRD// NOSIG
METAR:
2019/01/21 17:39
TAF TAF UBBB 211637Z 2117/2218 18016KT 0800 FG OVC002 TX10/2211Z TN02/2203Z 
      TEMPO 2117/2124 2000 BR BKN002 
      BECMG 2200/2202 20018G28KT 3000 BR BKN004 
      TEMPO 2202/2206 0600 FG BKN002 
      BECMG 2206/2208 6000 NSW SCT010 
      BECMG 2208/2210 33012KT SCT007